createdAt,value
2023-03-13T00:01:01.496Z,0.40
2023-03-13T00:03:29.095Z,0.00
2023-03-13T00:05:59.437Z,0.35
2023-03-13T00:08:29.101Z,2.90
2023-03-13T00:10:56.215Z,0.50
2023-03-13T00:13:23.210Z,0.63
2023-03-13T00:15:49.990Z,2.05
2023-03-13T00:18:16.907Z,2.80
2023-03-13T00:20:43.726Z,4.75
2023-03-13T00:23:10.482Z,4.88
2023-03-13T00:25:37.259Z,4.32
2023-03-13T00:28:04.130Z,9.63
2023-03-13T00:30:30.909Z,9.15
2023-03-13T00:32:57.666Z,8.10
2023-03-13T00:35:24.493Z,12.95
2023-03-13T00:37:51.386Z,11.18
2023-03-13T00:40:19.047Z,8.70
2023-03-13T00:42:45.795Z,7.13
2023-03-13T00:45:12.539Z,10.27
2023-03-13T00:47:39.288Z,7.35
2023-03-13T00:50:06.539Z,6.28
2023-03-13T00:52:33.265Z,4.90
2023-03-13T00:54:59.992Z,4.85
2023-03-13T00:57:26.699Z,8.50
2023-03-13T00:59:53.448Z,4.50
2023-03-13T01:02:20.475Z,5.65
2023-03-13T01:04:47.281Z,5.05
2023-03-13T01:07:14.049Z,10.55
2023-03-13T01:09:40.759Z,10.50
2023-03-13T01:12:07.905Z,10.10
2023-03-13T01:14:34.657Z,11.50
2023-03-13T01:17:01.450Z,18.08
2023-03-13T01:19:28.217Z,19.92
2023-03-13T01:21:55.203Z,14.68
2023-03-13T01:24:22.308Z,12.77
2023-03-13T01:26:49.034Z,15.55
2023-03-13T01:29:15.855Z,18.50
2023-03-13T01:31:42.610Z,18.15
2023-03-13T01:34:11.168Z,12.07
2023-03-13T01:36:38.420Z,16.60
2023-03-13T01:39:05.692Z,25.10
2023-03-13T01:41:32.535Z,23.90
2023-03-13T01:43:59.468Z,18.77
2023-03-13T01:46:28.386Z,26.67
2023-03-13T01:49:11.855Z,26.55
2023-03-13T01:51:50.647Z,18.63
2023-03-13T01:54:21.094Z,26.00
2023-03-13T01:57:10.867Z,20.03
2023-03-13T02:00:02.799Z,19.08
2023-03-13T02:02:30.525Z,20.95
2023-03-13T02:05:01.794Z,19.25
2023-03-13T02:07:40.451Z,18.45
2023-03-13T02:10:09.511Z,19.40
2023-03-13T02:12:39.436Z,23.58
2023-03-13T02:15:10.238Z,18.90
2023-03-13T02:17:39.799Z,22.15
2023-03-13T02:20:07.602Z,15.48
2023-03-13T02:23:05.393Z,18.45
2023-03-13T02:25:42.811Z,17.70
2023-03-13T02:28:15.727Z,16.75
2023-03-13T02:30:44.473Z,20.80
2023-03-13T02:33:15.148Z,24.98
2023-03-13T02:35:44.712Z,16.98
2023-03-13T02:38:16.514Z,19.30
2023-03-13T02:40:47.011Z,22.88
2023-03-13T02:43:25.573Z,21.73
2023-03-13T02:46:09.130Z,25.17
2023-03-13T02:48:51.216Z,26.40
2023-03-13T02:51:26.844Z,27.17
2023-03-13T02:53:58.277Z,21.40
2023-03-13T02:56:27.204Z,17.13
2023-03-13T02:58:53.931Z,27.73
2023-03-13T03:01:20.728Z,15.70
2023-03-13T03:03:47.683Z,14.93
2023-03-13T03:06:14.735Z,15.82
2023-03-13T03:08:43.954Z,16.38
2023-03-13T03:11:11.605Z,17.98
2023-03-13T03:13:38.395Z,13.15
2023-03-13T03:16:10.596Z,12.15
2023-03-13T03:18:38.234Z,7.03
2023-03-13T03:21:06.565Z,12.77
2023-03-13T03:23:34.593Z,10.50
2023-03-13T03:26:02.295Z,14.23
2023-03-13T03:28:29.127Z,13.77
2023-03-13T03:30:56.049Z,14.40
2023-03-13T03:33:23.938Z,18.42
2023-03-13T03:35:51.157Z,12.00
2023-03-13T03:38:18.001Z,10.75
2023-03-13T03:40:44.737Z,7.15
2023-03-13T03:43:11.457Z,6.22
2023-03-13T03:45:38.237Z,8.38
2023-03-13T03:48:05.345Z,8.73
2023-03-13T03:50:32.075Z,7.53
2023-03-13T03:52:58.773Z,6.05
2023-03-13T03:55:25.511Z,7.82
2023-03-13T03:57:52.264Z,5.30
2023-03-13T04:00:22.098Z,8.18
2023-03-13T04:02:49.595Z,7.63
2023-03-13T04:05:16.510Z,7.95
2023-03-13T04:07:43.221Z,4.45
2023-03-13T04:10:10.620Z,2.55
2023-03-13T04:12:37.495Z,6.38
2023-03-13T04:15:04.662Z,7.10
2023-03-13T04:17:31.490Z,5.68
2023-03-13T04:19:58.188Z,8.85
2023-03-13T04:22:25.333Z,6.03
2023-03-13T04:24:52.129Z,8.95
2023-03-13T04:27:19.360Z,8.32
2023-03-13T04:29:46.086Z,7.78
2023-03-13T04:32:12.866Z,6.25
2023-03-13T04:34:39.678Z,7.00
2023-03-13T04:37:06.451Z,7.05
2023-03-13T04:39:33.312Z,5.18
2023-03-13T04:42:00.074Z,4.05
2023-03-13T04:44:26.834Z,2.00
2023-03-13T04:46:53.601Z,3.08
2023-03-13T04:49:20.325Z,6.75
2023-03-13T04:51:47.065Z,1.90
2023-03-13T04:54:13.974Z,4.30
2023-03-13T04:56:43.994Z,6.88
2023-03-13T04:59:15.501Z,4.57
2023-03-13T05:01:43.196Z,6.65
2023-03-13T05:04:12.019Z,16.50
2023-03-13T05:06:39.113Z,12.68
2023-03-13T05:09:06.633Z,11.25
2023-03-13T05:11:33.875Z,15.82
2023-03-13T05:14:00.759Z,10.98
2023-03-13T05:16:27.678Z,17.10
2023-03-13T05:18:54.371Z,15.20
2023-03-13T05:21:21.216Z,10.93
2023-03-13T05:23:47.924Z,16.17
2023-03-13T05:26:14.615Z,14.50
2023-03-13T05:28:41.658Z,7.40
2023-03-13T05:31:08.461Z,12.40
2023-03-13T05:33:35.198Z,10.80
2023-03-13T05:36:02.006Z,10.65
2023-03-13T05:38:28.935Z,10.07
2023-03-13T05:40:55.656Z,14.68
2023-03-13T05:43:22.458Z,9.93
2023-03-13T05:45:49.203Z,16.55
2023-03-13T05:48:15.954Z,12.23
2023-03-13T05:50:42.704Z,20.35
2023-03-13T05:53:09.436Z,10.77
2023-03-13T05:55:36.158Z,9.75
2023-03-13T05:58:02.947Z,14.10
2023-03-13T06:00:29.745Z,14.20
2023-03-13T06:02:56.623Z,12.90
2023-03-13T06:05:23.348Z,10.40
2023-03-13T06:07:50.902Z,6.63
2023-03-13T06:10:17.745Z,10.60
2023-03-13T06:12:44.742Z,15.77
2023-03-13T06:15:12.452Z,10.25
2023-03-13T06:17:39.257Z,11.70
2023-03-13T06:20:06.583Z,13.02
2023-03-13T06:22:33.363Z,14.85
2023-03-13T06:25:00.254Z,16.35
2023-03-13T06:27:27.051Z,24.58
2023-03-13T06:29:53.794Z,14.10
2023-03-13T06:32:20.793Z,12.45
2023-03-13T06:34:47.706Z,14.32
2023-03-13T06:37:14.456Z,16.02
2023-03-13T06:39:41.304Z,17.40
2023-03-13T06:42:08.218Z,13.18
2023-03-13T06:44:34.998Z,18.15
2023-03-13T06:47:01.791Z,14.60
2023-03-13T06:49:28.661Z,13.70
2023-03-13T06:51:58.849Z,20.83
2023-03-13T06:54:26.122Z,17.20
2023-03-13T06:56:52.920Z,19.48
2023-03-13T06:59:19.661Z,11.68
2023-03-13T07:01:46.418Z,10.35
2023-03-13T07:04:13.931Z,12.05
2023-03-13T07:06:40.698Z,14.95
2023-03-13T07:09:07.397Z,14.07
2023-03-13T07:11:34.172Z,10.73
2023-03-13T07:14:15.860Z,14.00
2023-03-13T07:16:44.605Z,14.45
2023-03-13T07:19:11.428Z,12.27
2023-03-13T07:21:38.162Z,10.40
2023-03-13T07:24:05.235Z,18.13
2023-03-13T07:26:32.097Z,11.52
2023-03-13T07:28:59.054Z,14.65
2023-03-13T07:31:26.458Z,13.85
2023-03-13T07:33:56.728Z,13.48
2023-03-13T07:36:24.062Z,15.32
2023-03-13T07:38:52.285Z,17.98
2023-03-13T07:41:20.199Z,16.90
2023-03-13T07:43:48.186Z,17.08
2023-03-13T07:46:21.650Z,22.75
2023-03-13T07:48:49.141Z,12.55
2023-03-13T07:51:20.531Z,24.55
2023-03-13T07:53:50.819Z,18.70
2023-03-13T07:56:20.443Z,19.13
2023-03-13T07:58:47.613Z,11.73
2023-03-13T08:01:26.822Z,10.32
2023-03-13T08:03:56.015Z,14.70
2023-03-13T08:06:25.425Z,11.10
2023-03-13T08:08:53.621Z,17.73
2023-03-13T08:11:24.993Z,16.92
2023-03-13T08:16:21.419Z,12.20
2023-03-13T08:18:50.790Z,9.43
2023-03-13T08:21:21.165Z,14.82
2023-03-13T08:23:48.650Z,10.60
2023-03-13T08:26:16.882Z,12.23
2023-03-13T08:28:45.338Z,13.70
2023-03-13T08:31:13.627Z,13.68
2023-03-13T08:33:42.082Z,15.88
2023-03-13T08:36:14.718Z,17.88
2023-03-13T08:38:46.321Z,5.68
2023-03-13T08:41:19.208Z,8.13
2023-03-13T08:43:47.086Z,6.72
2023-03-13T08:46:14.722Z,4.38
2023-03-13T08:48:42.198Z,5.05
2023-03-13T08:51:12.079Z,7.40
2023-03-13T08:53:41.412Z,5.28
2023-03-13T08:56:10.144Z,5.55
2023-03-13T08:58:37.103Z,6.72
2023-03-13T09:01:06.064Z,4.78
2023-03-13T09:03:33.656Z,3.88
2023-03-13T09:06:01.116Z,7.15
2023-03-13T09:08:30.017Z,8.15
2023-03-13T09:11:02.366Z,4.55
2023-03-13T09:13:30.884Z,8.85
2023-03-13T09:16:18.337Z,7.35
2023-03-13T09:18:45.246Z,7.32
2023-03-13T09:21:21.382Z,10.75
2023-03-13T09:23:48.368Z,12.32
2023-03-13T09:26:15.578Z,9.18
2023-03-13T09:28:42.448Z,7.47
2023-03-13T09:31:13.310Z,17.42
2023-03-13T09:33:41.287Z,11.75
2023-03-13T09:36:09.297Z,15.75
2023-03-13T09:38:37.195Z,12.75
2023-03-13T09:41:41.904Z,11.65
2023-03-13T09:44:08.642Z,10.40
2023-03-13T09:46:43.848Z,17.75
2023-03-13T09:49:18.615Z,17.30
2023-03-13T09:51:50.911Z,9.52
2023-03-13T09:54:33.951Z,10.65
2023-03-13T09:57:13.895Z,14.82
2023-03-13T09:59:43.695Z,13.70
2023-03-13T10:02:25.147Z,22.63
2023-03-13T10:07:35.865Z,15.50
2023-03-13T10:10:04.170Z,19.42
2023-03-13T10:12:41.725Z,12.43
2023-03-13T10:15:30.804Z,15.82
2023-03-13T10:18:00.350Z,8.95
2023-03-13T10:20:30.258Z,13.82
2023-03-13T10:23:27.578Z,12.30
2023-03-13T10:25:54.651Z,13.20
2023-03-13T10:28:22.710Z,8.85
2023-03-13T10:30:54.519Z,10.65
2023-03-13T10:33:29.422Z,13.75
2023-03-13T10:36:13.764Z,12.20
2023-03-13T10:38:54.756Z,10.52
2023-03-13T10:41:28.594Z,10.77
2023-03-13T10:44:00.496Z,10.85
2023-03-13T10:46:29.862Z,6.45
2023-03-13T10:49:00.351Z,9.38
2023-03-13T10:51:41.110Z,14.20
2023-03-13T10:54:28.223Z,13.65
2023-03-13T10:57:08.789Z,12.50
2023-03-13T10:59:44.193Z,9.27
2023-03-13T11:02:36.201Z,14.10
2023-03-13T11:05:31.064Z,8.57
2023-03-13T11:07:58.009Z,13.63
2023-03-13T11:10:27.261Z,13.77
2023-03-13T11:12:57.034Z,11.90
2023-03-13T11:15:39.868Z,9.98
2023-03-13T11:18:39.080Z,12.35
2023-03-13T11:21:17.731Z,15.80
2023-03-13T11:23:54.142Z,13.95
2023-03-13T11:26:28.218Z,16.42
2023-03-13T11:29:11.132Z,15.05
2023-03-13T11:31:59.131Z,9.93
2023-03-13T11:34:40.559Z,1.27
2023-03-13T11:40:02.890Z,2.30
2023-03-13T11:42:35.652Z,1.73
2023-03-13T11:45:20.435Z,0.47
2023-03-13T11:47:59.496Z,0.65
2023-03-13T11:50:37.798Z,0.60
2023-03-13T11:53:16.729Z,0.10
2023-03-13T11:56:01.891Z,0.43
2023-03-13T11:58:42.216Z,2.65
2023-03-13T12:01:16.513Z,1.10
2023-03-13T12:04:00.264Z,1.70
2023-03-13T12:06:38.073Z,0.95
2023-03-13T12:09:46.199Z,1.15
2023-03-13T12:12:47.953Z,2.50
2023-03-13T12:15:16.194Z,1.65
2023-03-13T12:17:51.117Z,3.22
2023-03-13T12:20:38.235Z,2.33
2023-03-13T12:23:33.918Z,3.17
2023-03-13T12:26:07.823Z,4.35
2023-03-13T12:28:48.928Z,5.80
2023-03-13T12:31:36.905Z,1.17
2023-03-13T12:34:36.106Z,2.78
2023-03-13T12:37:09.091Z,2.10
2023-03-13T12:40:14.446Z,2.47
2023-03-13T12:42:41.230Z,3.78
2023-03-13T12:45:14.401Z,1.63
2023-03-13T12:48:09.445Z,1.85
2023-03-13T12:50:48.158Z,1.70
2023-03-13T12:53:47.769Z,1.60
2023-03-13T12:56:33.141Z,2.97
2023-03-13T12:59:04.594Z,1.30
2023-03-13T13:01:33.528Z,1.20
2023-03-13T13:04:12.285Z,2.85
2023-03-13T13:07:02.320Z,0.10
2023-03-13T13:09:58.730Z,0.63
2023-03-13T13:12:26.539Z,2.92
2023-03-13T13:14:53.186Z,0.93
2023-03-13T13:17:25.882Z,1.08
2023-03-13T13:19:52.769Z,3.45
2023-03-13T13:22:37.683Z,10.77
2023-03-13T13:25:24.337Z,10.82
2023-03-13T13:27:52.116Z,6.95
2023-03-13T13:30:18.808Z,6.90
2023-03-13T13:32:54.374Z,5.38
2023-03-13T13:35:35.078Z,5.07
2023-03-13T13:38:20.065Z,3.90
2023-03-13T13:41:03.694Z,3.60
2023-03-13T13:43:42.347Z,5.28
2023-03-13T13:46:30.498Z,1.73
2023-03-13T13:49:06.826Z,3.45
2023-03-13T13:51:38.524Z,2.03
2023-03-13T13:54:42.425Z,0.70
2023-03-13T13:57:15.634Z,1.42
2023-03-13T13:59:53.496Z,0.45
2023-03-13T14:02:26.387Z,0.25
2023-03-13T14:05:00.328Z,0.30
2023-03-13T14:07:37.583Z,1.27
2023-03-13T14:10:42.697Z,0.45
2023-03-13T14:13:21.194Z,1.15
2023-03-13T14:15:55.534Z,0.25
2023-03-13T14:18:30.286Z,0.47
2023-03-13T14:21:02.808Z,1.27
2023-03-13T14:23:42.420Z,0.22
2023-03-13T14:26:13.514Z,2.35
2023-03-13T14:28:43.488Z,1.38
2023-03-13T14:31:12.188Z,0.88
2023-03-13T14:33:39.160Z,1.15
2023-03-13T14:36:06.217Z,0.73
2023-03-13T14:38:33.660Z,1.15
2023-03-13T14:41:00.660Z,1.90
2023-03-13T14:43:45.195Z,1.48
2023-03-13T14:46:32.988Z,13.48
2023-03-13T14:49:29.652Z,7.90
2023-03-13T14:52:06.321Z,8.35
2023-03-13T14:54:51.486Z,7.57
2023-03-13T14:57:24.434Z,5.00
2023-03-13T14:59:54.129Z,12.32
2023-03-13T15:02:24.379Z,12.25
2023-03-13T15:05:07.466Z,5.32
2023-03-13T15:07:52.889Z,30.33
2023-03-13T15:10:19.719Z,7.75
2023-03-13T15:12:46.745Z,9.00
2023-03-13T15:15:13.605Z,15.98
2023-03-13T15:17:40.411Z,6.28
2023-03-13T15:20:09.806Z,15.93
2023-03-13T15:22:38.782Z,6.38
2023-03-13T15:25:22.807Z,11.25
2023-03-13T15:27:52.029Z,11.38
2023-03-13T15:30:23.630Z,6.68
2023-03-13T15:32:52.110Z,5.93
2023-03-13T15:35:31.194Z,12.02
2023-03-13T15:38:00.603Z,20.90
2023-03-13T15:40:28.693Z,11.38
2023-03-13T15:42:55.709Z,3.67
2023-03-13T15:45:22.492Z,7.85
2023-03-13T15:47:50.050Z,8.52
2023-03-13T15:50:19.441Z,8.38
2023-03-13T15:52:46.839Z,5.82
2023-03-13T15:55:14.011Z,1.52
2023-03-13T15:57:50.688Z,3.90
2023-03-13T16:00:24.213Z,2.25
2023-03-13T16:02:51.173Z,4.65
2023-03-13T16:05:18.005Z,1.67
2023-03-13T16:07:44.794Z,2.22
2023-03-13T16:10:25.426Z,0.88
2023-03-13T16:12:53.448Z,1.58
2023-03-13T16:15:20.546Z,1.70
2023-03-13T16:17:47.381Z,1.45
2023-03-13T16:20:21.000Z,3.17
2023-03-13T16:22:47.948Z,2.22
2023-03-13T16:25:15.505Z,1.67
2023-03-13T16:27:42.904Z,2.08
2023-03-13T16:30:27.823Z,1.25
2023-03-13T16:32:54.720Z,2.72
2023-03-13T16:35:22.438Z,5.47
2023-03-13T16:37:50.967Z,5.50
2023-03-13T16:40:21.074Z,5.00
2023-03-13T16:42:48.026Z,3.38
2023-03-13T16:45:15.607Z,3.45
2023-03-13T16:47:43.693Z,3.33
2023-03-13T16:50:25.215Z,7.03
2023-03-13T16:52:53.529Z,9.32
2023-03-13T16:55:20.978Z,5.53
2023-03-13T16:57:47.917Z,4.55
2023-03-13T17:00:20.523Z,4.13
2023-03-13T17:02:48.373Z,4.28
2023-03-13T17:05:16.256Z,2.30
2023-03-13T17:07:47.957Z,6.13
2023-03-13T17:10:21.356Z,1.98
2023-03-13T17:12:48.952Z,4.68
2023-03-13T17:15:16.341Z,5.30
2023-03-13T17:17:45.539Z,5.13
2023-03-13T17:20:16.452Z,9.40
2023-03-13T17:22:43.220Z,8.35
2023-03-13T17:25:10.823Z,5.07
2023-03-13T17:27:37.881Z,4.05
2023-03-13T17:30:26.143Z,4.45
2023-03-13T17:32:53.421Z,22.88
2023-03-13T17:35:20.998Z,25.23
2023-03-13T17:37:48.344Z,6.18
2023-03-13T17:40:17.734Z,9.18
2023-03-13T17:42:44.564Z,24.50
2023-03-13T17:45:12.048Z,29.30
2023-03-13T17:47:38.957Z,24.90
2023-03-13T17:50:22.990Z,12.73
2023-03-13T17:52:49.896Z,4.95
2023-03-13T17:55:16.681Z,10.45
2023-03-13T17:57:44.010Z,12.65
2023-03-13T18:00:24.868Z,17.20
2023-03-13T18:02:52.005Z,9.43
2023-03-13T18:05:18.895Z,11.38
2023-03-13T18:07:46.756Z,4.32
2023-03-13T18:10:19.151Z,2.53
2023-03-13T18:12:45.974Z,3.42
2023-03-13T18:15:12.990Z,7.07
2023-03-13T18:17:40.139Z,5.63
2023-03-13T18:20:14.959Z,4.13
2023-03-13T18:22:42.463Z,6.55
2023-03-13T18:25:10.298Z,7.45
2023-03-13T18:27:37.283Z,6.10
2023-03-13T18:30:04.534Z,7.70
2023-03-13T18:32:31.320Z,4.55
2023-03-13T18:34:58.067Z,9.93
2023-03-13T18:37:28.503Z,11.35
2023-03-13T18:39:56.187Z,12.43
2023-03-13T18:42:24.094Z,11.63
2023-03-13T18:44:51.316Z,13.15
2023-03-13T18:47:20.704Z,10.48
2023-03-13T18:49:50.025Z,12.68
2023-03-13T18:52:17.467Z,11.07
2023-03-13T18:54:44.992Z,12.35
2023-03-13T18:57:17.245Z,6.85
2023-03-13T18:59:44.613Z,12.30
2023-03-13T19:02:16.047Z,22.40
2023-03-13T19:04:44.328Z,13.80
2023-03-13T19:07:24.982Z,14.82
2023-03-13T19:09:51.852Z,12.85
2023-03-13T19:12:18.654Z,11.55
2023-03-13T19:14:45.441Z,14.18
2023-03-13T19:17:24.167Z,24.73
2023-03-13T19:19:50.985Z,15.57
2023-03-13T19:22:17.756Z,14.73
2023-03-13T19:24:44.594Z,11.75
2023-03-13T19:27:14.166Z,7.95
2023-03-13T19:29:40.959Z,6.10
2023-03-13T19:32:19.529Z,10.00
2023-03-13T19:34:46.308Z,11.55
2023-03-13T19:37:15.394Z,16.13
2023-03-13T19:39:42.845Z,16.73
2023-03-13T19:42:09.602Z,12.77
2023-03-13T19:44:36.929Z,13.73
2023-03-13T19:47:07.644Z,9.27
2023-03-13T19:49:34.409Z,8.75
2023-03-13T19:52:01.352Z,10.38
2023-03-13T19:54:28.112Z,13.65
2023-03-13T19:56:54.883Z,9.32
2023-03-13T19:59:23.989Z,7.75
2023-03-13T20:01:50.940Z,5.15
2023-03-13T20:04:17.758Z,9.00
2023-03-13T20:06:45.794Z,8.73
2023-03-13T20:09:16.690Z,19.77
2023-03-13T20:11:44.588Z,12.35
2023-03-13T20:14:11.513Z,7.97
2023-03-13T20:16:38.737Z,9.25
2023-03-13T20:19:05.694Z,8.90
2023-03-13T20:21:35.059Z,15.60
2023-03-13T20:24:02.229Z,9.38
2023-03-13T20:26:30.108Z,4.10
2023-03-13T20:28:57.672Z,6.22
2023-03-13T20:31:27.683Z,2.90
2023-03-13T20:33:55.770Z,6.25
2023-03-13T20:36:22.968Z,3.35
2023-03-13T20:38:49.834Z,5.65
2023-03-13T20:41:16.901Z,4.70
2023-03-13T20:43:43.835Z,5.47
2023-03-13T20:46:10.765Z,5.50
2023-03-13T20:48:39.660Z,2.90
2023-03-13T20:51:08.375Z,5.93
2023-03-13T20:53:39.362Z,3.28
2023-03-13T20:56:07.545Z,3.80
2023-03-13T20:58:35.556Z,6.03
2023-03-13T21:01:04.223Z,9.63
2023-03-13T21:03:35.517Z,5.72
2023-03-13T21:06:10.443Z,16.23
2023-03-13T21:08:38.926Z,4.93
2023-03-13T21:11:20.496Z,6.60
2023-03-13T21:16:16.709Z,2.50
2023-03-13T21:18:43.817Z,3.65
2023-03-13T21:21:17.453Z,9.02
2023-03-13T21:23:45.600Z,4.30
2023-03-13T21:26:13.682Z,6.50
2023-03-13T21:28:41.009Z,12.18
2023-03-13T21:31:16.846Z,11.40
2023-03-13T21:33:45.108Z,11.85
2023-03-13T21:36:13.172Z,8.13
2023-03-13T21:38:40.134Z,10.65
2023-03-13T21:41:11.025Z,5.68
2023-03-13T21:43:41.594Z,8.07
2023-03-13T21:46:12.832Z,6.82
2023-03-13T21:48:40.693Z,12.63
2023-03-13T21:51:08.437Z,5.30
2023-03-13T21:53:35.978Z,12.25
2023-03-13T21:56:03.164Z,8.82
2023-03-13T21:58:30.217Z,8.70
2023-03-13T22:00:58.030Z,14.00
2023-03-13T22:03:26.835Z,11.48
2023-03-13T22:05:53.939Z,14.07
2023-03-13T22:08:20.734Z,13.07
2023-03-13T22:10:49.523Z,9.95
2023-03-13T22:13:16.670Z,5.88
2023-03-13T22:15:46.403Z,5.95
2023-03-13T22:18:14.777Z,10.20
2023-03-13T22:20:42.416Z,12.00
2023-03-13T22:23:10.680Z,5.53
2023-03-13T22:25:42.506Z,9.95
2023-03-13T22:28:10.867Z,6.00
2023-03-13T22:30:38.749Z,10.15
2023-03-13T22:33:07.004Z,22.55
2023-03-13T22:35:35.229Z,7.50
2023-03-13T22:38:02.047Z,14.15
2023-03-13T22:40:28.806Z,10.55
2023-03-13T22:42:55.731Z,8.25
2023-03-13T22:45:23.180Z,7.65
2023-03-13T22:47:50.183Z,13.02
2023-03-13T22:50:17.701Z,15.40
2023-03-13T22:52:44.663Z,11.80
2023-03-13T22:55:11.507Z,12.88
2023-03-13T22:57:38.272Z,15.55
2023-03-13T23:00:07.565Z,18.10
2023-03-13T23:02:34.325Z,17.25
2023-03-13T23:05:01.421Z,16.13
2023-03-13T23:07:29.741Z,14.80
2023-03-13T23:09:57.626Z,19.50
2023-03-13T23:12:25.056Z,11.73
2023-03-13T23:14:52.585Z,12.43
2023-03-13T23:17:19.336Z,12.05
2023-03-13T23:19:46.181Z,14.43
2023-03-13T23:22:17.903Z,19.60
2023-03-13T23:24:44.928Z,13.32
2023-03-13T23:27:11.788Z,14.95
2023-03-13T23:29:38.613Z,19.42
2023-03-13T23:32:05.502Z,13.90
2023-03-13T23:34:32.748Z,11.38
2023-03-13T23:36:59.792Z,17.45
2023-03-13T23:39:26.531Z,17.33
2023-03-13T23:41:53.262Z,12.80
2023-03-13T23:44:20.030Z,15.10
2023-03-13T23:46:46.782Z,20.65
2023-03-13T23:49:13.526Z,26.40
2023-03-13T23:51:40.379Z,6.97
2023-03-13T23:54:07.451Z,9.40
2023-03-13T23:56:34.260Z,5.25
2023-03-13T23:59:01.012Z,5.93
